Impacts TAF Board
For situational awareness. Not to be used for flight planning purposes.
IDs:

KDEN - Denver Intl, CO, US

Issued at 1735 UTC 26 Oct 2021
Updated at 1751 UTC 26 Oct 2021
Potential Impact None Slight Moderate High
Time<<27/06Z 27/07Z 27/08Z 27/09Z 27/10Z 27/11Z 27/12Z 27/13Z 27/14Z 27/15Z 27/16Z 27/17Z 27/18Z>>
Type PRVL PRVL PRVL PRVL PRVL PRVL PRVL PRVL PRVL PRVL PRVL PRVL PRVL
VIS >6 >6 >6 >6 >6 >6 >6 >6 >6 >6 >6 >6 >6
CIG 60 60 60 60 120 120 120 120 -- -- -- -- --
Cover BKN BKN BKN BKN BKN BKN BKN BKN SCT SCT SCT SCT FEW
FltCat VFR VFR VFR VFR VFR VFR VFR VFR VFR VFR VFR VFR VFR
WX VCSH VCSH VCSH VCSH -- -- -- -- -- -- -- -- --
WDir 10 10 10 10 240 240 240 240 330 330 330 330 330
WSpd 16 16 16 16 8 8 8 8 14 14 14 14 20
WGst -- -- -- -- -- -- -- -- 22 22 22 22 32
Raw TAF
KDEN 261735Z 2618/2724 21015G30KT P6SM BKN220
  FM261820 29020G35KT P6SM VCSH SCT070 BKN120
  FM262100 35020G35KT P6SM VCSH BKN050 BKN080
  TEMPO 2622/2702 4SM -SHRA BKN030
  FM270400 01016KT P6SM VCSH BKN060 BKN120
  FM271000 24008KT P6SM SCT060 BKN120
  FM271400 33014G22KT P6SM SCT100
  FM271800 33020G32KT P6SM FEW100


METAR Board
Radar Display
Forecast Discussion
For situational awareness. Not to be used for flight planning purposes.